Terminal Aerodrome Forecast
Issued by NWS

Home | Current Version | Previous Version | Text Only | Print | Product List | Glossary On
Versions: 1 2 3 4 5 6 7 8 9 10 11 12 13 14
006
FTUS42 KMLB 271740
TAFLEE
TAF
KLEE 271740Z 2718/2818 08008KT P6SM SCT045
     FM280000 06005KT P6SM FEW030 SCT070
     FM281400 09009KT P6SM SCT025 SCT050=

USA.gov is the U.S. government's official web portal to all federal, state and local government web resources and services.